Time;durP1;ratioP1;P1;durP2;ratioP2;P2;SDS_P1;SDS_P2;PMS_P1;PMS_P2;Temp;Humidity;BMP_temperature;BMP_pressure;BME280_temperature;BME280_humidity;BME280_pressure;Samples;Min_cycle;Max_cycle;Signal;HPM_P1;HPM_P2
2023/09/12 00:01:23;;;;;;;23.77;16.08;;;20.50;99.90;;;;;;5004205;28;20030;-57
2023/09/12 00:03:48;;;;;;;28.08;17.85;;;20.50;99.90;;;;;;5004235;28;20458;-57
2023/09/12 00:06:14;;;;;;;30.33;18.15;;;20.60;99.90;;;;;;5006080;28;20034;-58
2023/09/12 00:08:39;;;;;;;36.72;18.83;;;20.40;99.90;;;;;;5004341;28;20062;-56
2023/09/12 00:11:13;;;;;;;34.60;18.30;;;20.50;99.90;;;;;;5003683;28;20042;-56
2023/09/12 00:13:39;;;;;;;32.47;18.58;;;20.80;99.90;;;;;;5004603;28;20041;-59
2023/09/12 00:16:05;;;;;;;40.30;22.02;;;21.00;99.90;;;;;;5003303;28;20137;-59
2023/09/12 00:18:34;;;;;;;39.75;21.90;;;20.10;99.90;;;;;;5008575;28;20557;-59
2023/09/12 00:21:00;;;;;;;41.70;22.92;;;19.90;99.90;;;;;;5006621;28;20049;-59
2023/09/12 00:23:26;;;;;;;48.00;24.42;;;19.50;99.90;;;;;;5009009;28;20036;-59
2023/09/12 00:25:52;;;;;;;45.47;24.95;;;19.40;99.90;;;;;;5003736;28;20073;-59
2023/09/12 00:28:18;;;;;;;52.80;28.13;;;19.60;99.90;;;;;;5006939;28;20073;-60
2023/09/12 00:30:44;;;;;;;42.05;26.38;;;19.30;99.90;;;;;;5006321;28;20104;-60
2023/09/12 00:33:10;;;;;;;44.67;26.48;;;19.40;99.90;;;;;;5003714;28;20046;-60
2023/09/12 00:35:35;;;;;;;51.33;27.55;;;19.50;99.90;;;;;;5005584;28;20037;-60
2023/09/12 00:38:01;;;;;;;46.95;29.95;;;19.80;99.90;;;;;;5001588;28;20042;-59
2023/09/12 00:40:27;;;;;;;55.83;30.58;;;19.70;99.90;;;;;;5000390;28;20076;-60
2023/09/12 00:42:52;;;;;;;53.28;32.58;;;19.60;99.90;;;;;;5003010;28;20046;-59
2023/09/12 00:45:18;;;;;;;58.78;33.75;;;19.40;99.90;;;;;;5009564;28;20077;-58
2023/09/12 00:47:44;;;;;;;54.28;33.15;;;19.50;99.90;;;;;;5008328;28;20358;-60
2023/09/12 00:50:11;;;;;;;52.92;32.00;;;19.50;99.90;;;;;;5003692;28;20034;-60
2023/09/12 00:52:38;;;;;;;56.55;32.78;;;19.60;99.90;;;;;;5003494;28;20477;-60
2023/09/12 00:55:04;;;;;;;55.60;33.03;;;19.30;99.90;;;;;;5005773;28;20033;-60
2023/09/12 00:57:32;;;;;;;50.88;30.73;;;19.40;99.90;;;;;;5014281;28;20036;-59
2023/09/12 00:59:58;;;;;;;51.70;30.90;;;19.30;99.90;;;;;;5003780;28;20064;-59
2023/09/12 01:02:24;;;;;;;54.00;31.52;;;19.30;99.90;;;;;;5005891;28;20080;-59
2023/09/12 01:04:50;;;;;;;57.58;31.60;;;19.30;99.90;;;;;;5006434;28;20038;-60
2023/09/12 01:07:16;;;;;;;52.42;31.25;;;19.30;99.90;;;;;;5006616;28;20037;-59
2023/09/12 01:09:42;;;;;;;56.90;32.28;;;19.50;99.90;;;;;;5003466;28;20037;-60
2023/09/12 01:12:14;;;;;;;54.45;32.08;;;;;;;;;;5004983;28;20060;-60
2023/09/12 01:14:40;;;;;;;54.88;32.38;;;19.70;99.90;;;;;;5003396;28;20030;-60
2023/09/12 01:17:05;;;;;;;57.47;32.55;;;19.80;99.90;;;;;;5008135;28;20456;-59
2023/09/12 01:19:31;;;;;;;51.20;33.40;;;19.90;99.90;;;;;;5005969;28;20033;-60
2023/09/12 01:22:46;;;;;;;53.45;32.83;;;20.00;99.90;;;;;;5014615;28;20041;-59
2023/09/12 01:25:18;;;;;;;58.28;33.95;;;20.10;99.90;;;;;;5015098;28;20520;-60
2023/09/12 01:27:50;;;;;;;65.15;35.22;;;19.70;99.90;;;;;;5028262;28;20025;-58
2023/09/12 01:30:19;;;;;;;51.50;32.17;;;19.90;99.90;;;;;;5025592;28;20033;-59
2023/09/12 01:32:45;;;;;;;56.10;35.25;;;20.10;99.90;;;;;;5029845;28;20036;-58
2023/09/12 01:35:10;;;;;;;58.92;34.42;;;20.00;99.90;;;;;;5033214;28;20029;-58
2023/09/12 01:37:36;;;;;;;56.05;32.97;;;19.70;99.90;;;;;;5024889;28;20022;-60
2023/09/12 01:40:03;;;;;;;58.35;33.33;;;19.50;99.90;;;;;;5022330;28;20052;-59
2023/09/12 01:42:35;;;;;;;51.30;31.38;;;19.50;99.90;;;;;;5020792;28;20041;-58
2023/09/12 01:45:02;;;;;;;48.80;29.75;;;19.70;99.90;;;;;;5030542;28;20045;-59
2023/09/12 01:47:29;;;;;;;52.28;30.50;;;19.60;99.90;;;;;;5026779;28;20562;-59
2023/09/12 01:49:58;;;;;;;49.72;32.35;;;19.40;99.90;;;;;;5032664;28;20063;-60
2023/09/12 01:52:26;;;;;;;53.03;30.73;;;19.70;99.90;;;;;;5020827;28;20057;-59
2023/09/12 01:54:53;;;;;;;49.92;29.73;;;20.10;99.90;;;;;;5030259;28;20724;-60
2023/09/12 01:57:22;;;;;;;55.85;32.70;;;19.60;99.90;;;;;;5004301;28;20077;-60
2023/09/12 01:59:50;;;;;;;53.30;32.00;;;19.40;99.90;;;;;;5006307;28;20401;-59
2023/09/12 02:02:16;;;;;;;49.95;31.00;;;19.80;99.90;;;;;;5026742;28;20313;-59
2023/09/12 02:04:51;;;;;;;48.67;30.00;;;19.70;99.90;;;;;;5019989;28;20492;-59
2023/09/12 02:07:17;;;;;;;49.50;30.50;;;19.80;99.90;;;;;;5020883;28;20040;-59
2023/09/12 02:09:43;;;;;;;54.65;31.63;;;19.70;99.90;;;;;;5022858;28;20370;-59
2023/09/12 02:12:08;;;;;;;54.28;32.60;;;19.60;99.90;;;;;;5027966;28;20536;-59
2023/09/12 02:14:34;;;;;;;52.10;32.50;;;19.70;99.90;;;;;;5022863;28;20026;-59
2023/09/12 02:17:00;;;;;;;55.28;32.65;;;19.80;99.90;;;;;;5024793;28;20041;-60
2023/09/12 02:19:25;;;;;;;49.58;31.08;;;20.20;99.90;;;;;;5021695;28;20381;-59
2023/09/12 02:21:51;;;;;;;47.47;30.17;;;20.30;99.90;;;;;;5023916;28;20087;-60
2023/09/12 02:24:18;;;;;;;42.33;27.40;;;20.20;99.90;;;;;;5029125;28;20438;-59
2023/09/12 02:26:44;;;;;;;46.00;29.23;;;19.80;99.90;;;;;;5025822;28;20025;-60
2023/09/12 02:29:09;;;;;;;55.40;32.10;;;20.00;99.90;;;;;;5025016;28;20030;-58
2023/09/12 02:31:35;;;;;;;54.47;31.10;;;;;;;;;;5025156;28;20065;-59
2023/09/12 02:34:01;;;;;;;65.72;33.50;;;20.20;99.90;;;;;;5056335;28;20350;-59
2023/09/12 02:36:28;;;;;;;59.78;33.03;;;20.20;99.90;;;;;;5023722;28;20433;-60
2023/09/12 02:38:53;;;;;;;61.38;32.65;;;19.50;99.90;;;;;;5026245;28;20037;-60
2023/09/12 02:41:19;;;;;;;49.38;30.92;;;19.30;99.90;;;;;;5022583;28;20037;-60
2023/09/12 02:43:44;;;;;;;55.95;32.53;;;19.40;99.90;;;;;;5026278;28;20025;-60
2023/09/12 02:46:10;;;;;;;56.90;32.00;;;19.30;99.90;;;;;;5024262;28;20029;-58
2023/09/12 02:48:35;;;;;;;56.45;30.85;;;19.30;99.90;;;;;;5022163;28;20125;-59
2023/09/12 02:51:01;;;;;;;55.15;31.88;;;19.40;99.90;;;;;;5029410;28;20132;-59
2023/09/12 02:53:27;;;;;;;53.65;31.00;;;19.30;99.90;;;;;;5028428;28;20026;-59
2023/09/12 02:55:54;;;;;;;51.72;31.23;;;19.20;99.90;;;;;;5024592;28;20191;-59
2023/09/12 02:58:19;;;;;;;53.30;31.33;;;19.10;99.90;;;;;;5008495;28;20196;-60
2023/09/12 03:00:45;;;;;;;51.60;29.13;;;19.10;99.90;;;;;;5016866;28;20502;-59
2023/09/12 03:03:10;;;;;;;53.72;31.38;;;19.30;99.90;;;;;;5006550;28;20061;-60
2023/09/12 03:05:36;;;;;;;54.65;31.42;;;19.40;99.90;;;;;;5009677;28;20120;-59
2023/09/12 03:08:03;;;;;;;48.83;30.52;;;19.60;99.90;;;;;;5000341;28;20133;-59
2023/09/12 03:10:29;;;;;;;54.65;32.55;;;19.60;99.90;;;;;;5024693;28;20392;-59
2023/09/12 03:12:54;;;;;;;52.30;31.92;;;19.60;99.90;;;;;;5062693;28;20061;-59
2023/09/12 03:15:20;;;;;;;49.40;30.48;;;19.80;99.90;;;;;;5029036;28;20037;-59
2023/09/12 03:17:45;;;;;;;57.22;30.98;;;19.60;99.90;;;;;;5034453;28;20124;-59
2023/09/12 03:20:11;;;;;;;50.53;31.45;;;19.30;99.90;;;;;;5023174;28;20042;-58
2023/09/12 03:22:37;;;;;;;52.28;31.25;;;19.00;99.90;;;;;;5024517;28;20022;-58
2023/09/12 03:25:05;;;;;;;57.90;34.03;;;19.10;99.90;;;;;;5028545;28;20036;-59
2023/09/12 03:27:32;;;;;;;52.88;30.35;;;19.20;99.90;;;;;;5029370;28;20034;-59
2023/09/12 03:29:57;;;;;;;57.83;32.22;;;19.40;99.90;;;;;;5028408;28;20033;-59
2023/09/12 03:32:23;;;;;;;46.92;30.10;;;19.50;99.90;;;;;;5036479;28;20037;-58
2023/09/12 03:34:49;;;;;;;49.20;31.15;;;19.40;99.90;;;;;;5025909;28;20030;-58
2023/09/12 03:37:14;;;;;;;56.47;33.17;;;19.30;99.90;;;;;;5060694;28;20037;-58
2023/09/12 03:39:40;;;;;;;48.80;31.67;;;19.40;99.90;;;;;;5027672;28;20037;-59
2023/09/12 03:42:06;;;;;;;50.42;31.42;;;19.20;99.90;;;;;;5026354;28;20509;-59
2023/09/12 03:44:31;;;;;;;51.30;31.38;;;19.10;99.90;;;;;;5026167;28;20088;-57
2023/09/12 03:46:58;;;;;;;49.78;29.55;;;19.20;99.90;;;;;;5027964;28;20493;-58
2023/09/12 03:49:23;;;;;;;55.33;33.00;;;19.20;99.90;;;;;;5028843;28;20111;-59
2023/09/12 03:51:49;;;;;;;53.83;31.95;;;19.20;99.90;;;;;;5024311;28;20364;-59
2023/09/12 03:54:14;;;;;;;48.63;30.85;;;19.30;99.90;;;;;;5026849;28;20533;-59
2023/09/12 03:56:40;;;;;;;52.05;32.15;;;19.20;99.90;;;;;;5024258;28;20037;-59
2023/09/12 03:59:06;;;;;;;49.97;32.50;;;19.00;99.90;;;;;;5027815;28;20036;-59
2023/09/12 04:01:32;;;;;;;44.95;28.95;;;19.10;99.90;;;;;;5024603;28;20430;-58
2023/09/12 04:03:58;;;;;;;49.47;31.15;;;19.20;99.90;;;;;;5026607;28;20029;-59
2023/09/12 04:06:23;;;;;;;50.25;32.03;;;19.20;99.90;;;;;;5028064;28;20813;-60
2023/09/12 04:08:49;;;;;;;53.50;32.25;;;19.20;99.90;;;;;;5031265;28;20091;-60
2023/09/12 04:11:14;;;;;;;48.38;30.95;;;19.30;99.90;;;;;;5033200;28;20056;-60
2023/09/12 04:13:40;;;;;;;43.55;29.05;;;19.20;99.90;;;;;;5024065;28;20067;-60
2023/09/12 04:16:06;;;;;;;48.53;30.85;;;19.00;99.90;;;;;;5024885;28;20144;-58
2023/09/12 04:18:31;;;;;;;55.25;33.10;;;18.90;99.90;;;;;;5028121;28;20034;-59
2023/09/12 04:20:57;;;;;;;52.05;32.92;;;19.00;99.90;;;;;;5025146;28;20049;-59
2023/09/12 04:23:24;;;;;;;51.90;32.72;;;19.20;99.90;;;;;;5025249;28;20387;-58
2023/09/12 04:25:50;;;;;;;62.90;35.10;;;19.30;99.90;;;;;;5023697;28;20037;-58
2023/09/12 04:28:16;;;;;;;60.90;37.28;;;19.30;99.90;;;;;;5026821;28;20037;-58
2023/09/12 04:30:41;;;;;;;60.08;35.65;;;19.30;99.90;;;;;;5025814;28;20037;-59
2023/09/12 04:33:07;;;;;;;64.57;38.88;;;19.40;99.90;;;;;;5034432;28;20090;-59
2023/09/12 04:35:33;;;;;;;69.15;37.72;;;19.60;99.90;;;;;;5025815;28;20163;-59
2023/09/12 04:37:59;;;;;;;60.35;36.25;;;19.60;99.90;;;;;;5010016;28;20187;-59
2023/09/12 04:40:24;;;;;;;67.63;39.03;;;19.50;99.90;;;;;;5023869;28;20537;-58
2023/09/12 04:42:50;;;;;;;68.65;39.53;;;19.50;99.90;;;;;;5030505;28;20319;-58
2023/09/12 04:45:16;;;;;;;61.45;37.50;;;19.40;99.90;;;;;;5029941;28;20370;-59
2023/09/12 04:47:41;;;;;;;60.90;35.95;;;19.40;99.90;;;;;;5024889;28;20454;-59
2023/09/12 04:50:07;;;;;;;68.32;38.90;;;19.30;99.90;;;;;;5026541;28;20076;-59
2023/09/12 04:52:33;;;;;;;57.20;35.08;;;19.10;99.90;;;;;;5027512;28;20037;-59
2023/09/12 04:54:58;;;;;;;60.03;34.85;;;19.20;99.90;;;;;;5028848;28;20034;-58
2023/09/12 04:57:24;;;;;;;54.17;33.22;;;19.40;99.90;;;;;;5023765;28;20034;-58
2023/09/12 04:59:51;;;;;;;58.75;34.72;;;19.30;99.90;;;;;;5023853;28;20064;-58
2023/09/12 05:02:16;;;;;;;59.83;34.35;;;19.10;99.90;;;;;;5019725;28;20036;-59
2023/09/12 05:04:42;;;;;;;55.78;34.63;;;19.20;99.90;;;;;;5024332;28;20032;-58
2023/09/12 05:07:08;;;;;;;59.20;33.40;;;19.30;99.90;;;;;;5022146;28;20029;-58
2023/09/12 05:09:34;;;;;;;57.00;34.58;;;19.30;99.90;;;;;;5022679;28;20396;-58
2023/09/12 05:11:59;;;;;;;60.42;36.08;;;19.10;99.90;;;;;;5019316;28;20136;-59
2023/09/12 05:14:25;;;;;;;63.17;37.67;;;19.10;99.90;;;;;;5026034;28;20112;-58
2023/09/12 05:16:50;;;;;;;63.17;37.53;;;19.30;99.90;;;;;;5022483;28;20483;-59
2023/09/12 05:19:16;;;;;;;69.78;39.80;;;19.30;99.90;;;;;;5022365;28;20453;-58
2023/09/12 05:21:41;;;;;;;70.18;41.20;;;19.50;99.90;;;;;;5023298;28;20050;-59
2023/09/12 05:24:07;;;;;;;72.70;40.90;;;19.40;99.90;;;;;;5024974;28;20060;-58
2023/09/12 05:26:33;;;;;;;72.60;40.88;;;19.30;99.90;;;;;;5028241;28;20029;-58
2023/09/12 05:28:58;;;;;;;75.70;40.60;;;19.20;99.90;;;;;;5026782;28;20044;-59
2023/09/12 05:31:24;;;;;;;70.15;38.70;;;19.30;99.90;;;;;;5023739;28;20485;-58
2023/09/12 05:33:49;;;;;;;73.80;39.72;;;19.40;99.90;;;;;;5022486;28;20075;-59
2023/09/12 05:36:15;;;;;;;76.80;40.20;;;19.30;99.90;;;;;;5023123;28;20033;-57
2023/09/12 05:38:41;;;;;;;80.60;43.38;;;19.20;99.90;;;;;;5014721;28;20405;-59
2023/09/12 05:41:06;;;;;;;80.82;44.28;;;19.90;99.90;;;;;;5029810;28;20135;-59
2023/09/12 05:43:32;;;;;;;83.35;46.72;;;19.60;99.90;;;;;;5022049;28;20063;-59
2023/09/12 05:45:58;;;;;;;88.97;46.45;;;19.70;99.90;;;;;;5018018;28;20398;-57
2023/09/12 05:48:23;;;;;;;93.50;48.92;;;19.80;99.90;;;;;;5029887;28;20041;-59
2023/09/12 05:50:49;;;;;;;92.88;49.00;;;19.60;99.90;;;;;;5032047;28;20131;-59
2023/09/12 05:53:14;;;;;;;93.05;48.92;;;19.70;99.90;;;;;;5024428;28;20413;-58
2023/09/12 05:55:40;;;;;;;98.57;49.28;;;19.80;99.90;;;;;;5023133;28;20036;-59
2023/09/12 05:58:06;;;;;;;91.40;49.17;;;19.80;99.90;;;;;;5028164;28;20119;-59
2023/09/12 06:00:32;;;;;;;98.85;50.67;;;19.90;99.90;;;;;;5024318;28;20030;-60
2023/09/12 06:02:58;;;;;;;91.38;47.85;;;19.90;99.90;;;;;;5022475;28;20780;-59
2023/09/12 06:05:24;;;;;;;87.75;48.28;;;19.90;99.90;;;;;;5025442;28;20060;-59
2023/09/12 06:07:49;;;;;;;88.80;47.45;;;19.80;99.90;;;;;;5019741;28;20405;-59
2023/09/12 06:10:15;;;;;;;87.93;48.95;;;20.00;99.90;;;;;;5025542;28;20048;-59
2023/09/12 06:12:40;;;;;;;96.70;50.53;;;20.00;99.90;;;;;;5025845;28;20075;-59
2023/09/12 06:15:06;;;;;;;95.18;51.45;;;20.00;99.90;;;;;;5021447;28;20029;-59
2023/09/12 06:17:32;;;;;;;95.78;50.25;;;20.00;99.90;;;;;;5018050;28;20080;-59
2023/09/12 06:19:58;;;;;;;90.20;48.35;;;19.90;99.90;;;;;;5028714;28;20040;-58
2023/09/12 06:22:23;;;;;;;95.53;48.33;;;19.20;99.90;;;;;;5025549;28;21058;-58
2023/09/12 06:24:53;;;;;;;102.43;50.78;;;19.00;99.90;;;;;;5010805;28;20085;-60
2023/09/12 06:27:18;;;;;;;103.43;52.05;;;18.90;99.90;;;;;;5020758;28;20022;-60
2023/09/12 06:29:48;;;;;;;96.47;50.25;;;19.00;99.90;;;;;;5006748;28;20393;-60
2023/09/12 06:32:15;;;;;;;96.97;51.53;;;18.90;99.90;;;;;;5015171;28;20057;-60
2023/09/12 06:34:40;;;;;;;99.80;51.55;;;18.90;99.90;;;;;;5028989;28;20124;-59
2023/09/12 06:37:06;;;;;;;104.43;53.00;;;18.90;99.90;;;;;;5040862;28;20460;-60
2023/09/12 06:39:31;;;;;;;105.95;53.78;;;18.80;99.90;;;;;;5023287;28;20150;-59
2023/09/12 06:41:57;;;;;;;101.68;51.95;;;18.90;99.90;;;;;;5027973;28;20498;-59
2023/09/12 06:44:23;;;;;;;111.53;53.33;;;19.00;99.90;;;;;;5031811;28;20477;-60
2023/09/12 06:46:48;;;;;;;108.30;53.30;;;19.30;99.90;;;;;;5030070;28;20030;-60
2023/09/12 06:49:14;;;;;;;107.57;52.90;;;19.20;99.90;;;;;;5026381;28;20120;-60
2023/09/12 06:51:39;;;;;;;100.97;52.45;;;19.20;99.90;;;;;;5030908;28;20440;-60
2023/09/12 06:54:05;;;;;;;101.47;50.33;;;19.00;99.90;;;;;;5028871;28;20067;-60
2023/09/12 06:56:31;;;;;;;100.78;52.15;;;18.90;99.90;;;;;;5028019;28;20049;-60
2023/09/12 06:58:59;;;;;;;101.72;51.85;;;19.00;99.90;;;;;;5029863;28;20038;-59
2023/09/12 07:01:24;;;;;;;109.75;52.20;;;19.10;99.90;;;;;;5026580;28;20044;-60
2023/09/12 07:03:53;;;;;;;95.60;51.35;;;19.20;99.90;;;;;;5025417;28;20525;-60
2023/09/12 07:06:19;;;;;;;93.40;48.97;;;19.10;99.90;;;;;;5030216;28;20782;-60
2023/09/12 07:08:44;;;;;;;97.90;51.00;;;19.40;99.90;;;;;;5030581;28;20033;-60
2023/09/12 07:11:10;;;;;;;92.80;48.53;;;19.60;99.90;;;;;;5026654;28;20045;-60
2023/09/12 07:13:36;;;;;;;85.93;48.13;;;19.70;99.90;;;;;;5028068;28;20410;-60
2023/09/12 07:16:03;;;;;;;89.85;50.45;;;19.80;99.90;;;;;;5028346;28;20037;-60
2023/09/12 07:18:32;;;;;;;90.28;48.72;;;19.90;99.90;;;;;;5033232;28;20151;-60
2023/09/12 07:21:02;;;;;;;86.55;47.67;;;19.80;99.90;;;;;;5023391;28;20742;-60
2023/09/12 07:23:28;;;;;;;92.90;48.20;;;19.50;99.90;;;;;;5015687;28;20052;-60
2023/09/12 07:25:57;;;;;;;88.97;48.75;;;19.60;99.90;;;;;;5023847;28;20586;-60
2023/09/12 07:28:23;;;;;;;85.07;46.40;;;19.70;99.90;;;;;;5025279;28;20038;-60
2023/09/12 07:30:49;;;;;;;85.15;46.40;;;19.70;99.90;;;;;;5026818;28;20802;-60
2023/09/12 07:33:14;;;;;;;85.03;44.58;;;19.60;99.90;;;;;;5028644;28;20037;-60
2023/09/12 07:35:40;;;;;;;88.43;46.65;;;19.60;99.90;;;;;;5025811;28;20029;-59
2023/09/12 07:38:06;;;;;;;86.38;46.08;;;19.70;99.90;;;;;;4999808;28;20527;-60
2023/09/12 07:40:31;;;;;;;82.65;44.92;;;19.90;99.90;;;;;;4990989;28;20050;-60
2023/09/12 07:42:57;;;;;;;88.53;45.67;;;19.60;99.90;;;;;;4997483;28;20216;-60
2023/09/12 07:45:23;;;;;;;81.13;44.63;;;19.40;99.90;;;;;;5000408;28;20077;-60
2023/09/12 07:47:48;;;;;;;85.85;46.22;;;19.40;99.90;;;;;;5002470;28;20035;-57
2023/09/12 07:50:14;;;;;;;105.18;61.78;;;19.40;99.90;;;;;;4993605;28;20045;-60
2023/09/12 07:52:40;;;;;;;79.07;44.13;;;19.40;99.90;;;;;;4999433;28;20153;-60
2023/09/12 07:55:07;;;;;;;78.50;44.05;;;19.40;99.90;;;;;;5002429;28;20085;-60
2023/09/12 07:57:34;;;;;;;79.22;42.80;;;19.50;99.90;;;;;;5011980;28;20492;-58
2023/09/12 07:59:59;;;;;;;74.47;44.00;;;19.60;99.90;;;;;;5003923;28;20034;-59
2023/09/12 08:02:25;;;;;;;81.00;43.88;;;19.60;99.90;;;;;;5008722;28;20083;-59
2023/09/12 08:04:51;;;;;;;85.18;45.40;;;19.60;99.90;;;;;;5006672;28;20038;-59
2023/09/12 08:07:17;;;;;;;82.05;45.25;;;19.60;99.90;;;;;;5014639;28;20025;-58
2023/09/12 08:09:54;;;;;;;90.68;45.85;;;19.70;99.90;;;;;;5007723;28;20037;-59
2023/09/12 08:12:21;;;;;;;83.05;45.88;;;19.80;99.90;;;;;;5007296;28;20100;-59
2023/09/12 08:14:46;;;;;;;77.78;44.28;;;19.80;99.90;;;;;;5026856;28;20489;-59
2023/09/12 08:17:13;;;;;;;82.03;44.45;;;20.00;99.90;;;;;;5022111;28;20033;-59
2023/09/12 08:19:39;;;;;;;84.20;47.53;;;20.10;99.90;;;;;;5028171;28;20057;-59
2023/09/12 08:22:05;;;;;;;82.40;46.08;;;20.20;99.90;;;;;;5029636;28;20396;-59
2023/09/12 08:24:31;;;;;;;75.53;43.45;;;20.10;99.90;;;;;;5022910;28;20029;-59
2023/09/12 08:26:56;;;;;;;72.68;42.40;;;20.10;99.90;;;;;;5006389;28;20044;-57
2023/09/12 08:29:22;;;;;;;81.35;46.03;;;20.10;99.90;;;;;;5011624;28;20034;-58
2023/09/12 08:31:47;;;;;;;83.28;47.53;;;20.50;99.90;;;;;;5017124;28;20145;-57
2023/09/12 08:34:13;;;;;;;78.95;46.45;;;20.70;99.90;;;;;;5030700;28;20082;-58
2023/09/12 08:36:39;;;;;;;98.70;50.72;;;20.70;99.90;;;;;;5027444;28;20040;-58
2023/09/12 08:39:08;;;;;;;78.80;46.20;;;20.90;99.90;;;;;;5025957;28;20041;-58
2023/09/12 08:41:34;;;;;;;73.15;45.10;;;22.00;99.90;;;;;;5030455;28;20037;-58
2023/09/12 08:44:01;;;;;;;67.00;42.05;;;20.80;99.90;;;;;;5020545;28;20060;-58
2023/09/12 08:46:28;;;;;;;71.68;42.47;;;20.70;99.90;;;;;;5018452;28;20045;-58
2023/09/12 08:48:56;;;;;;;63.33;39.10;;;20.70;99.90;;;;;;5018499;28;20038;-58
2023/09/12 08:51:23;;;;;;;62.53;36.13;;;20.90;99.90;;;;;;5007140;28;20052;-58
2023/09/12 08:53:50;;;;;;;61.65;37.03;;;20.90;99.90;;;;;;5026371;28;20142;-58
2023/09/12 08:56:16;;;;;;;57.30;33.50;;;20.90;99.90;;;;;;5026818;28;20037;-57
2023/09/12 08:58:43;;;;;;;48.63;29.13;;;20.80;99.90;;;;;;5024002;28;20034;-58
2023/09/12 09:01:12;;;;;;;50.58;31.58;;;20.90;99.90;;;;;;5024634;28;20083;-58
2023/09/12 09:03:41;;;;;;;50.45;28.95;;;21.00;99.90;;;;;;5050078;28;20038;-58
2023/09/12 09:06:08;;;;;;;45.47;27.90;;;21.30;99.90;;;;;;5028498;28;20490;-58
2023/09/12 09:08:34;;;;;;;48.33;29.00;;;21.20;99.90;;;;;;5025445;28;20041;-58
2023/09/12 09:11:06;;;;;;;49.53;29.90;;;21.20;99.90;;;;;;5032457;28;20272;-58
2023/09/12 09:13:35;;;;;;;53.42;32.60;;;22.30;99.90;;;;;;5021602;28;20281;-58
2023/09/12 09:16:14;;;;;;;57.30;36.35;;;21.30;99.90;;;;;;5019500;28;20085;-58
2023/09/12 09:18:51;;;;;;;106.45;64.90;;;21.10;99.90;;;;;;4996133;28;20446;-60
2023/09/12 09:21:24;;;;;;;42.17;28.20;;;21.20;99.90;;;;;;4995739;28;20046;-60
2023/09/12 09:23:50;;;;;;;33.25;21.40;;;21.30;99.90;;;;;;5000163;28;20401;-59
2023/09/12 09:26:16;;;;;;;28.00;20.40;;;;;;;;;;5018888;28;20568;-60
2023/09/12 09:28:42;;;;;;;27.70;18.98;;;;;;;;;;5025808;28;20116;-59
2023/09/12 09:31:13;;;;;;;29.48;20.00;;;;;;;;;;5022171;28;20552;-59
2023/09/12 09:33:45;;;;;;;18.80;12.88;;;;;;;;;;5022798;28;20113;-60
2023/09/12 09:36:11;;;;;;;21.67;14.68;;;;;;;;;;5023607;28;20084;-59
2023/09/12 09:38:37;;;;;;;18.08;11.48;;;;;;;;;;5029681;28;20072;-60
2023/09/12 09:41:07;;;;;;;22.83;13.98;;;;;;;;;;5027501;28;20114;-59
2023/09/12 09:43:33;;;;;;;15.88;12.02;;;;;;;;;;5025416;28;20033;-59
2023/09/12 09:45:59;;;;;;;13.90;10.30;;;21.70;99.90;;;;;;5025747;28;20043;-60
2023/09/12 09:48:28;;;;;;;13.38;10.27;;;21.60;99.90;;;;;;5030142;28;20033;-59
2023/09/12 09:51:02;;;;;;;12.40;8.68;;;21.70;99.90;;;;;;5028515;28;20129;-58
2023/09/12 09:53:29;;;;;;;12.48;9.02;;;21.60;99.90;;;;;;5020413;28;20433;-60
2023/09/12 09:56:15;;;;;;;18.98;9.88;;;21.60;99.90;;;;;;5021199;28;20037;-60
2023/09/12 09:58:54;;;;;;;17.48;9.82;;;21.80;99.90;;;;;;5014379;28;20029;-58
2023/09/12 10:01:22;;;;;;;17.38;11.15;;;21.90;99.90;;;;;;5022115;28;20044;-59
2023/09/12 10:03:49;;;;;;;17.75;10.50;;;21.90;99.90;;;;;;5022324;28;20048;-59
2023/09/12 10:06:17;;;;;;;16.75;10.40;;;21.90;99.90;;;;;;5026365;28;20386;-60
2023/09/12 10:08:45;;;;;;;15.85;10.27;;;21.90;99.90;;;;;;5035065;28;20056;-59
2023/09/12 10:11:16;;;;;;;13.32;9.07;;;22.00;99.90;;;;;;5031918;28;20444;-60
2023/09/12 10:13:49;;;;;;;14.98;9.02;;;22.00;99.90;;;;;;5029054;28;20448;-60
2023/09/12 10:16:16;;;;;;;12.05;8.57;;;22.00;99.90;;;;;;5030396;28;20412;-60
2023/09/12 10:18:53;;;;;;;13.35;8.73;;;22.00;99.90;;;;;;5030645;28;20362;-60
2023/09/12 10:21:25;;;;;;;17.25;9.45;;;22.00;99.90;;;;;;5031073;28;20116;-60
2023/09/12 10:23:51;;;;;;;13.38;8.30;;;21.90;99.90;;;;;;5022137;28;20052;-60
2023/09/12 10:26:17;;;;;;;10.70;7.60;;;22.00;99.90;;;;;;5034384;28;20037;-59
2023/09/12 10:28:43;;;;;;;14.55;9.63;;;22.00;99.90;;;;;;5031736;28;20498;-58
2023/09/12 10:31:12;;;;;;;16.92;9.60;;;22.30;99.90;;;;;;5032233;28;20036;-60
2023/09/12 10:33:38;;;;;;;14.05;9.63;;;22.40;99.90;;;;;;5032288;28;20509;-59
2023/09/12 10:36:05;;;;;;;18.33;11.52;;;22.30;99.90;;;;;;5030550;28;20037;-60
2023/09/12 10:38:36;;;;;;;17.58;11.80;;;22.30;99.90;;;;;;5029771;28;20048;-60
2023/09/12 10:41:03;;;;;;;15.38;9.55;;;22.20;99.90;;;;;;5031935;28;20063;-60
2023/09/12 10:43:33;;;;;;;16.45;10.90;;;22.40;99.90;;;;;;5026973;28;20071;-60
2023/09/12 10:46:03;;;;;;;15.82;11.43;;;22.50;99.90;;;;;;5023567;28;20132;-60
2023/09/12 10:48:29;;;;;;;10.93;8.40;;;22.40;99.90;;;;;;5026523;28;20401;-60
2023/09/12 10:50:58;;;;;;;13.52;8.90;;;22.50;99.90;;;;;;5029378;28;20045;-60
2023/09/12 10:53:26;;;;;;;13.57;9.13;;;22.40;99.90;;;;;;5020738;28;20049;-60
2023/09/12 10:56:00;;;;;;;16.05;11.18;;;22.30;99.90;;;;;;5026743;28;20049;-60
2023/09/12 10:58:26;;;;;;;16.00;11.55;;;22.40;99.90;;;;;;5027201;28;20440;-59
2023/09/12 11:01:25;;;;;;;20.75;13.43;;;22.60;99.90;;;;;;5022432;28;20036;-60
2023/09/12 11:03:52;;;;;;;16.58;9.77;;;24.80;99.90;;;;;;5026858;28;20037;-60
2023/09/12 11:06:30;;;;;;;14.88;9.95;;;23.90;99.90;;;;;;5027850;28;20164;-59
2023/09/12 11:09:14;;;;;;;14.70;9.98;;;22.70;99.90;;;;;;5026452;28;20036;-59
2023/09/12 11:11:41;;;;;;;15.75;10.52;;;22.70;99.90;;;;;;5029271;28;20045;-60
2023/09/12 11:14:07;;;;;;;17.60;12.57;;;22.60;99.90;;;;;;5033325;28;20041;-59
2023/09/12 11:16:35;;;;;;;17.52;11.30;;;22.70;99.90;;;;;;5028627;28;20041;-60
2023/09/12 11:19:16;;;;;;;18.13;12.80;;;22.80;99.90;;;;;;5034671;28;20045;-60
2023/09/12 11:21:44;;;;;;;16.13;10.80;;;22.70;99.90;;;;;;5014624;28;20045;-59
2023/09/12 11:24:09;;;;;;;20.67;10.95;;;22.70;99.90;;;;;;5024776;28;20148;-59
2023/09/12 11:26:35;;;;;;;18.55;11.30;;;22.70;99.90;;;;;;5022838;28;20489;-59
2023/09/12 11:29:19;;;;;;;16.58;11.60;;;22.80;99.90;;;;;;5034464;28;20041;-58
2023/09/12 11:31:57;;;;;;;15.05;10.60;;;22.80;99.90;;;;;;5023032;28;20034;-59
2023/09/12 11:34:26;;;;;;;22.00;12.13;;;23.00;99.90;;;;;;5033033;28;20033;-60
2023/09/12 11:36:55;;;;;;;15.55;10.00;;;22.40;99.90;;;;;;5015325;28;20033;-59
2023/09/12 11:39:25;;;;;;;13.05;9.60;;;23.10;99.90;;;;;;5033162;28;20575;-59
2023/09/12 11:41:51;;;;;;;17.20;11.13;;;23.10;99.90;;;;;;5025724;28;20041;-60
2023/09/12 11:44:18;;;;;;;19.27;12.55;;;23.00;99.90;;;;;;5030445;28;20051;-59
2023/09/12 11:46:49;;;;;;;18.02;12.93;;;23.20;99.90;;;;;;5027957;28;20515;-58
2023/09/12 11:49:16;;;;;;;18.20;12.35;;;23.30;99.90;;;;;;5026073;28;20033;-57
2023/09/12 11:51:49;;;;;;;22.50;13.57;;;23.40;99.90;;;;;;5029866;28;20122;-58
2023/09/12 11:54:20;;;;;;;17.15;11.52;;;23.60;99.90;;;;;;5034425;28;20029;-57
2023/09/12 11:56:49;;;;;;;17.17;11.00;;;23.50;99.90;;;;;;5022708;28;20138;-58
2023/09/12 11:59:18;;;;;;;18.25;11.10;;;23.30;99.90;;;;;;5025585;28;20109;-58
2023/09/12 12:01:45;;;;;;;15.25;11.40;;;23.30;99.90;;;;;;5029202;28;20030;-58
2023/09/12 12:04:11;;;;;;;17.23;12.02;;;23.30;99.90;;;;;;5025515;28;20337;-59
2023/09/12 12:06:37;;;;;;;15.18;10.93;;;23.10;99.90;;;;;;5026549;28;20037;-59
2023/09/12 12:09:04;;;;;;;19.33;11.50;;;23.30;99.90;;;;;;5028705;28;20761;-58
2023/09/12 12:11:31;;;;;;;13.70;9.98;;;23.30;99.90;;;;;;5024422;28;20524;-58
2023/09/12 12:13:56;;;;;;;14.30;10.20;;;23.40;99.90;;;;;;5018030;28;20455;-59
2023/09/12 12:16:22;;;;;;;15.35;11.48;;;;;;;;;;5026554;28;20128;-58
2023/09/12 12:18:54;;;;;;;16.77;11.60;;;;;;;;;;5018278;28;20082;-57
2023/09/12 12:21:20;;;;;;;19.27;12.07;;;;;;;;;;5023987;28;20037;-57
2023/09/12 12:23:46;;;;;;;18.77;13.38;;;;;;;;;;5013026;28;20257;-58
2023/09/12 12:26:12;;;;;;;25.98;18.13;;;;;;;;;;5015003;28;20044;-57
2023/09/12 12:28:38;;;;;;;19.65;13.05;;;;;;;;;;5019291;28;20102;-59
2023/09/12 12:31:04;;;;;;;16.83;12.23;;;;;;;;;;5003078;28;20040;-59
2023/09/12 12:33:31;;;;;;;23.02;14.38;;;;;;;;;;5006664;28;20060;-58